createdAt,value
2017-11-30T00:01:43.116Z,43.25
2017-11-30T00:04:09.967Z,46.22
2017-11-30T00:06:36.813Z,45.60
2017-11-30T00:09:03.696Z,44.95
2017-11-30T00:11:30.524Z,39.88
2017-11-30T00:13:57.398Z,43.75
2017-11-30T00:16:24.226Z,42.55
2017-11-30T00:18:51.047Z,44.63
2017-11-30T00:21:17.862Z,44.38
2017-11-30T00:23:44.705Z,44.42
2017-11-30T00:26:11.781Z,44.80
2017-11-30T00:28:38.650Z,42.40
2017-11-30T00:31:05.493Z,40.85
2017-11-30T00:33:32.287Z,44.97
2017-11-30T00:35:59.103Z,43.20
2017-11-30T00:38:25.932Z,43.38
2017-11-30T00:40:52.784Z,42.10
2017-11-30T00:43:25.614Z,46.97
2017-11-30T00:45:52.403Z,43.87
2017-11-30T00:48:19.505Z,41.83
2017-11-30T00:50:46.356Z,49.22
2017-11-30T00:53:13.196Z,47.80
2017-11-30T00:55:40.046Z,43.80
2017-11-30T00:58:06.856Z,48.83
2017-11-30T01:00:33.690Z,47.37
2017-11-30T01:03:00.500Z,45.70
2017-11-30T01:05:27.348Z,46.37
2017-11-30T01:07:54.170Z,46.30
2017-11-30T01:10:20.979Z,45.90
2017-11-30T01:12:47.825Z,44.33
2017-11-30T01:15:14.652Z,46.35
2017-11-30T01:17:41.444Z,48.08
2017-11-30T01:20:08.568Z,52.20
2017-11-30T01:22:35.384Z,51.63
2017-11-30T01:25:02.180Z,50.20
2017-11-30T01:27:29.065Z,49.10
2017-11-30T01:29:55.897Z,46.88
2017-11-30T01:32:22.765Z,53.80
2017-11-30T01:34:49.632Z,50.30
2017-11-30T01:37:16.471Z,50.75
2017-11-30T01:39:43.263Z,60.65
2017-11-30T01:42:10.108Z,56.90
2017-11-30T01:44:36.907Z,54.22
2017-11-30T01:47:03.699Z,56.92
2017-11-30T01:49:30.787Z,59.17
2017-11-30T01:51:57.574Z,57.28
2017-11-30T01:54:24.412Z,55.35
2017-11-30T01:56:51.262Z,58.47
2017-11-30T01:59:18.092Z,51.10
2017-11-30T02:01:44.884Z,55.93
2017-11-30T02:04:11.756Z,53.65
2017-11-30T02:06:38.599Z,58.05
2017-11-30T02:09:05.395Z,61.10
2017-11-30T02:11:32.241Z,60.53
2017-11-30T02:13:59.056Z,57.92
2017-11-30T02:16:25.893Z,63.47
2017-11-30T02:18:52.744Z,62.40
2017-11-30T02:21:19.847Z,68.95
2017-11-30T02:23:46.668Z,70.15
2017-11-30T02:26:13.533Z,67.97
2017-11-30T02:28:40.351Z,73.37
2017-11-30T02:31:07.188Z,83.47
2017-11-30T02:33:34.047Z,64.28
2017-11-30T02:36:00.868Z,69.82
2017-11-30T02:38:27.756Z,62.42
2017-11-30T02:40:54.592Z,64.90
2017-11-30T02:43:21.422Z,65.95
2017-11-30T02:45:48.285Z,68.20
2017-11-30T02:48:15.115Z,68.18
2017-11-30T02:50:41.912Z,65.95
2017-11-30T02:53:08.703Z,64.67
2017-11-30T02:55:35.557Z,65.97
2017-11-30T02:58:02.351Z,68.45
2017-11-30T03:00:29.167Z,67.40
2017-11-30T03:02:56.011Z,68.78
2017-11-30T03:05:22.845Z,75.10
2017-11-30T03:07:49.696Z,71.15
2017-11-30T03:10:16.566Z,72.93
2017-11-30T03:12:43.400Z,67.57
2017-11-30T03:15:10.217Z,70.20
2017-11-30T03:17:37.072Z,79.90
2017-11-30T03:20:03.875Z,81.12
2017-11-30T03:22:30.712Z,90.62
2017-11-30T03:24:57.572Z,80.07
2017-11-30T03:27:24.396Z,80.60
2017-11-30T03:29:51.230Z,77.60
2017-11-30T03:32:18.296Z,90.68
2017-11-30T03:34:45.127Z,92.53
2017-11-30T03:37:11.925Z,88.35
2017-11-30T03:39:38.765Z,89.93
2017-11-30T03:42:05.555Z,88.03
2017-11-30T03:44:32.722Z,89.37
2017-11-30T03:46:59.572Z,98.53
2017-11-30T03:49:26.355Z,104.28
2017-11-30T03:51:53.152Z,112.40
2017-11-30T03:54:19.968Z,87.40
2017-11-30T03:56:46.799Z,101.03
2017-11-30T03:59:13.881Z,90.45
2017-11-30T04:01:40.699Z,94.37
2017-11-30T04:04:07.520Z,90.28
2017-11-30T04:06:34.335Z,84.53
2017-11-30T04:09:01.159Z,88.93
2017-11-30T04:11:28.001Z,106.87
2017-11-30T04:13:54.812Z,109.50
2017-11-30T04:16:22.040Z,98.85
2017-11-30T04:18:48.867Z,107.63
2017-11-30T04:21:15.883Z,114.62
2017-11-30T04:23:42.699Z,98.62
2017-11-30T04:26:09.495Z,106.97
2017-11-30T04:28:36.294Z,102.50
2017-11-30T04:31:03.117Z,107.10
2017-11-30T04:33:29.952Z,119.45
2017-11-30T04:35:56.754Z,111.32
2017-11-30T04:38:23.621Z,139.20
2017-11-30T04:40:50.440Z,112.05
2017-11-30T04:43:17.230Z,123.68
2017-11-30T04:45:44.145Z,110.53
2017-11-30T04:48:10.979Z,114.12
2017-11-30T04:50:37.804Z,133.85
2017-11-30T04:53:04.629Z,129.23
2017-11-30T04:55:31.434Z,122.37
2017-11-30T04:57:58.530Z,112.18
2017-11-30T05:00:25.376Z,131.52
2017-11-30T05:02:52.179Z,125.57
2017-11-30T05:05:19.007Z,109.57
2017-11-30T05:07:45.901Z,112.70
2017-11-30T05:10:12.706Z,107.30
2017-11-30T05:12:39.495Z,105.53
2017-11-30T05:15:06.352Z,112.78
2017-11-30T05:17:33.147Z,105.50
2017-11-30T05:19:59.970Z,98.22
2017-11-30T05:22:26.805Z,99.35
2017-11-30T05:24:53.637Z,100.55
2017-11-30T05:27:20.464Z,95.53
2017-11-30T05:29:47.316Z,88.78
2017-11-30T05:32:14.108Z,97.05
2017-11-30T05:34:40.929Z,96.05
2017-11-30T05:37:07.782Z,94.20
2017-11-30T05:39:34.596Z,95.18
2017-11-30T05:42:01.420Z,96.90
2017-11-30T05:44:28.228Z,85.90
2017-11-30T05:46:55.108Z,85.65
2017-11-30T05:49:21.951Z,109.37
2017-11-30T05:51:48.759Z,104.85
2017-11-30T05:54:15.593Z,104.82
2017-11-30T05:56:42.421Z,95.78
2017-11-30T05:59:09.230Z,101.47
2017-11-30T06:01:36.039Z,118.68
2017-11-30T06:04:02.843Z,92.28
2017-11-30T06:06:29.668Z,87.97
2017-11-30T06:08:56.496Z,100.80
2017-11-30T06:11:23.316Z,95.75
2017-11-30T06:13:50.166Z,103.80
2017-11-30T06:16:16.977Z,115.35
2017-11-30T06:18:43.768Z,100.53
2017-11-30T06:21:10.595Z,110.22
2017-11-30T06:23:37.424Z,96.33
2017-11-30T06:26:04.233Z,85.43
2017-11-30T06:28:31.084Z,97.37
2017-11-30T06:30:57.899Z,92.37
2017-11-30T06:33:24.694Z,107.80
2017-11-30T06:35:51.547Z,103.62
2017-11-30T06:38:18.373Z,95.97
2017-11-30T06:40:45.159Z,99.97
2017-11-30T06:43:12.008Z,96.75
2017-11-30T06:45:39.112Z,93.78
2017-11-30T06:48:05.913Z,98.43
2017-11-30T06:50:32.765Z,89.62
2017-11-30T06:52:59.813Z,88.87
2017-11-30T06:55:26.633Z,100.05
2017-11-30T06:57:53.453Z,105.00
2017-11-30T07:00:20.289Z,100.43
2017-11-30T07:02:47.136Z,101.85
2017-11-30T07:05:13.984Z,88.03
2017-11-30T07:07:40.826Z,90.53
2017-11-30T07:10:07.624Z,112.72
2017-11-30T07:12:34.497Z,89.57
2017-11-30T07:15:01.324Z,89.13
2017-11-30T07:17:28.154Z,90.35
2017-11-30T07:19:54.967Z,93.10
2017-11-30T07:22:21.765Z,99.07
2017-11-30T07:24:48.559Z,90.43
2017-11-30T07:27:15.407Z,101.05
2017-11-30T07:29:42.261Z,105.68
2017-11-30T07:32:09.059Z,104.63
2017-11-30T07:34:36.195Z,91.55
2017-11-30T07:37:03.057Z,107.72
2017-11-30T07:39:30.171Z,94.62
2017-11-30T07:41:57.030Z,98.30
2017-11-30T07:44:23.896Z,101.35
2017-11-30T07:46:50.705Z,83.50
2017-11-30T07:49:17.531Z,107.80
2017-11-30T07:51:44.345Z,98.40
2017-11-30T07:54:11.128Z,85.65
2017-11-30T07:56:37.977Z,84.13
2017-11-30T07:59:04.784Z,85.70
2017-11-30T08:01:31.600Z,82.72
2017-11-30T08:03:58.706Z,87.05
2017-11-30T08:06:25.556Z,77.65
2017-11-30T08:08:52.380Z,85.22
2017-11-30T08:11:19.229Z,87.72
2017-11-30T08:13:46.028Z,80.35
2017-11-30T08:16:12.833Z,77.82
2017-11-30T08:18:39.673Z,79.30
2017-11-30T08:21:06.467Z,83.87
2017-11-30T08:23:33.252Z,72.80
2017-11-30T08:26:00.096Z,75.55
2017-11-30T08:28:26.934Z,76.12
2017-11-30T08:30:53.994Z,78.40
2017-11-30T08:33:20.827Z,79.93
2017-11-30T08:35:47.657Z,66.72
2017-11-30T08:38:14.477Z,73.62
2017-11-30T08:40:41.297Z,70.50
2017-11-30T08:43:08.152Z,68.50
2017-11-30T08:45:35.353Z,67.20
2017-11-30T08:48:02.164Z,70.65
2017-11-30T08:50:28.996Z,72.10
2017-11-30T08:52:55.805Z,65.20
2017-11-30T08:55:22.636Z,62.47
2017-11-30T08:57:49.441Z,63.33
2017-11-30T09:00:16.278Z,59.38
2017-11-30T09:02:43.090Z,66.32
2017-11-30T09:05:09.895Z,63.63
2017-11-30T09:07:36.720Z,71.65
2017-11-30T09:10:03.582Z,62.95
2017-11-30T09:12:30.422Z,63.85
2017-11-30T09:14:57.570Z,64.93
2017-11-30T09:17:24.384Z,64.87
2017-11-30T09:19:51.177Z,62.17
2017-11-30T09:22:17.997Z,66.53
2017-11-30T09:24:45.020Z,66.45
2017-11-30T09:27:11.921Z,70.47
2017-11-30T09:29:38.704Z,60.95
2017-11-30T09:32:05.548Z,60.97
2017-11-30T09:34:32.356Z,68.85
2017-11-30T09:36:59.182Z,72.27
2017-11-30T09:39:26.020Z,72.30
2017-11-30T09:41:52.803Z,69.40
2017-11-30T09:44:19.631Z,64.70
2017-11-30T09:46:46.501Z,65.72
2017-11-30T09:49:13.331Z,59.35
2017-11-30T09:51:40.123Z,61.50
2017-11-30T09:54:06.961Z,63.63
2017-11-30T09:56:33.793Z,58.20
2017-11-30T09:59:00.601Z,55.28
2017-11-30T10:01:27.463Z,56.35
2017-11-30T10:03:54.272Z,55.42
2017-11-30T10:06:21.092Z,55.20
2017-11-30T10:08:47.915Z,58.07
2017-11-30T10:11:14.712Z,55.80
2017-11-30T10:13:41.498Z,57.03
2017-11-30T10:16:08.318Z,62.58
2017-11-30T10:18:35.103Z,58.33
2017-11-30T10:21:01.950Z,56.37
2017-11-30T10:23:28.806Z,56.67
2017-11-30T10:25:55.662Z,52.65
2017-11-30T10:28:22.484Z,57.97
2017-11-30T10:30:49.334Z,60.53
2017-11-30T10:33:16.185Z,55.92
2017-11-30T10:35:42.971Z,54.85
2017-11-30T10:38:09.833Z,55.15
2017-11-30T10:40:36.632Z,52.88
2017-11-30T10:43:03.432Z,56.97
2017-11-30T10:45:30.573Z,54.03
2017-11-30T10:47:57.365Z,56.90
2017-11-30T10:50:24.198Z,58.25
2017-11-30T10:52:51.045Z,56.57
2017-11-30T10:55:17.865Z,50.90
2017-11-30T10:57:44.681Z,55.12
2017-11-30T11:00:11.504Z,53.83
2017-11-30T11:02:38.351Z,54.75
2017-11-30T11:05:05.189Z,53.50
2017-11-30T11:07:32.000Z,51.53
2017-11-30T11:09:58.804Z,55.08
2017-11-30T11:12:25.604Z,47.47
2017-11-30T11:14:52.427Z,50.00
2017-11-30T11:17:19.525Z,49.22
2017-11-30T11:19:46.355Z,50.03
2017-11-30T11:22:13.212Z,43.95
2017-11-30T11:24:40.046Z,53.22
2017-11-30T11:27:06.868Z,51.17
2017-11-30T11:29:33.717Z,45.95
2017-11-30T11:32:00.530Z,47.25
2017-11-30T11:34:27.315Z,45.30
2017-11-30T11:36:54.137Z,46.33
2017-11-30T11:39:21.186Z,50.50
2017-11-30T11:41:48.004Z,50.08
2017-11-30T11:44:14.833Z,48.77
2017-11-30T11:46:41.637Z,51.40
2017-11-30T11:49:08.472Z,49.80
2017-11-30T11:51:35.317Z,50.30
2017-11-30T11:54:02.141Z,49.95
2017-11-30T11:56:28.933Z,48.80
2017-11-30T11:58:55.789Z,53.70
2017-11-30T12:01:22.583Z,51.22
2017-11-30T12:03:49.644Z,60.70
2017-11-30T12:06:16.500Z,56.63
2017-11-30T12:08:43.299Z,52.90
2017-11-30T12:11:10.120Z,50.42
2017-11-30T12:13:36.932Z,51.00
2017-11-30T12:16:03.752Z,55.47
2017-11-30T12:18:30.570Z,54.67
2017-11-30T12:20:57.381Z,52.03
2017-11-30T12:23:24.183Z,53.70
2017-11-30T12:25:50.963Z,54.03
2017-11-30T12:28:17.815Z,53.92
2017-11-30T12:30:44.611Z,50.53
2017-11-30T12:33:11.430Z,51.33
2017-11-30T12:35:38.285Z,51.05
2017-11-30T12:38:05.091Z,50.97
2017-11-30T12:40:31.922Z,51.72
2017-11-30T12:42:58.761Z,47.60
2017-11-30T12:45:25.592Z,48.00
2017-11-30T12:47:52.404Z,51.40
2017-11-30T12:50:19.215Z,50.50
2017-11-30T12:52:46.057Z,52.72
2017-11-30T12:55:12.843Z,52.83
2017-11-30T12:57:39.667Z,48.60
2017-11-30T13:00:06.474Z,45.67
2017-11-30T13:02:33.298Z,48.67
2017-11-30T13:05:00.159Z,52.28
2017-11-30T13:07:27.259Z,50.97
2017-11-30T13:09:54.412Z,48.83
2017-11-30T13:12:21.239Z,53.85
2017-11-30T13:14:48.068Z,48.30
2017-11-30T13:17:14.881Z,51.78
2017-11-30T13:19:41.739Z,46.63
2017-11-30T13:22:08.551Z,50.47
2017-11-30T13:24:35.675Z,52.58
2017-11-30T13:27:02.493Z,51.92
2017-11-30T13:29:29.301Z,48.80
2017-11-30T13:31:56.136Z,53.83
2017-11-30T13:34:22.983Z,52.85
2017-11-30T13:36:49.808Z,52.17
2017-11-30T13:39:16.585Z,51.90
2017-11-30T13:41:43.435Z,48.43
2017-11-30T13:44:10.251Z,54.90
2017-11-30T13:46:37.368Z,52.78
2017-11-30T13:49:04.213Z,49.83
2017-11-30T13:51:30.998Z,57.10
2017-11-30T13:53:57.812Z,51.07
2017-11-30T13:56:24.661Z,58.70
2017-11-30T13:58:51.789Z,51.70
2017-11-30T14:01:18.569Z,59.33
2017-11-30T14:03:45.406Z,56.87
2017-11-30T14:06:12.217Z,63.53
2017-11-30T14:08:39.002Z,59.75
2017-11-30T14:11:05.818Z,61.20
2017-11-30T14:13:32.946Z,63.85
2017-11-30T14:15:59.992Z,63.80
2017-11-30T14:18:26.806Z,64.13
2017-11-30T14:20:53.603Z,67.80
2017-11-30T14:23:20.392Z,67.60
2017-11-30T14:25:47.239Z,67.70
2017-11-30T14:28:14.027Z,72.55
2017-11-30T14:30:40.834Z,70.25
2017-11-30T14:33:07.691Z,67.00
2017-11-30T14:35:34.844Z,65.50
2017-11-30T14:38:01.682Z,73.35
2017-11-30T14:40:28.519Z,70.45
2017-11-30T14:42:55.370Z,75.53
2017-11-30T14:45:22.170Z,78.10
2017-11-30T14:47:49.028Z,68.20
2017-11-30T14:50:15.822Z,77.37
2017-11-30T14:52:42.654Z,79.22
2017-11-30T14:55:09.478Z,77.53
2017-11-30T14:57:36.635Z,80.57
2017-11-30T15:00:03.463Z,88.35
2017-11-30T15:02:30.290Z,78.37
2017-11-30T15:04:57.127Z,81.50
2017-11-30T15:07:23.956Z,78.03
2017-11-30T15:09:51.230Z,78.45
2017-11-30T15:12:18.122Z,82.53
2017-11-30T15:14:44.984Z,81.97
2017-11-30T15:17:11.850Z,83.07
2017-11-30T15:19:38.630Z,80.62
2017-11-30T15:22:05.678Z,76.65
2017-11-30T15:24:32.531Z,80.95
2017-11-30T15:26:59.355Z,75.10
2017-11-30T15:29:26.177Z,73.75
2017-11-30T15:31:53.021Z,72.65
2017-11-30T15:34:19.843Z,75.70
2017-11-30T15:36:46.668Z,79.80
2017-11-30T15:39:13.486Z,76.62
2017-11-30T15:41:40.339Z,73.80
2017-11-30T15:44:07.141Z,74.90
2017-11-30T15:46:34.258Z,79.05
2017-11-30T15:49:01.045Z,79.40
2017-11-30T15:51:27.875Z,79.12
2017-11-30T15:53:55.051Z,76.70
2017-11-30T15:56:22.331Z,75.53
2017-11-30T15:58:49.136Z,77.10
2017-11-30T16:01:15.945Z,79.57
2017-11-30T16:03:42.743Z,85.78
2017-11-30T16:06:09.778Z,81.53
2017-11-30T16:08:36.632Z,80.90
2017-11-30T16:11:03.448Z,81.90
2017-11-30T16:13:30.237Z,83.50
2017-11-30T16:15:57.091Z,83.75
2017-11-30T16:18:23.905Z,81.70
2017-11-30T16:20:50.739Z,88.47
2017-11-30T16:23:17.555Z,84.05
2017-11-30T16:25:44.394Z,85.53
2017-11-30T16:28:11.197Z,81.30
2017-11-30T16:30:38.067Z,72.37
2017-11-30T16:33:04.902Z,76.70
2017-11-30T16:35:31.715Z,75.12
2017-11-30T16:37:58.568Z,75.45
2017-11-30T16:40:25.355Z,74.90
2017-11-30T16:42:52.174Z,79.20
2017-11-30T16:45:18.993Z,65.97
2017-11-30T16:47:45.791Z,75.93
2017-11-30T16:50:12.631Z,78.27
2017-11-30T16:52:39.442Z,80.50
2017-11-30T16:55:06.267Z,73.70
2017-11-30T16:57:33.104Z,72.32
2017-11-30T16:59:59.935Z,67.18
2017-11-30T17:02:26.763Z,67.05
2017-11-30T17:04:53.558Z,67.25
2017-11-30T17:07:20.406Z,63.50
2017-11-30T17:09:47.239Z,62.90
2017-11-30T17:12:14.035Z,60.95
2017-11-30T17:14:40.885Z,61.28
2017-11-30T17:17:07.711Z,60.90
2017-11-30T17:19:34.761Z,65.22
2017-11-30T17:22:01.634Z,65.85
2017-11-30T17:24:28.515Z,62.80
2017-11-30T17:26:55.342Z,59.35
2017-11-30T17:29:22.167Z,70.00
2017-11-30T17:31:49.285Z,62.80
2017-11-30T17:34:16.085Z,61.17
2017-11-30T17:36:42.929Z,62.15
2017-11-30T17:39:09.750Z,61.83
2017-11-30T17:41:36.547Z,68.47
2017-11-30T17:44:03.602Z,63.17
2017-11-30T17:46:30.451Z,68.07
2017-11-30T17:48:57.371Z,63.22
2017-11-30T17:51:24.190Z,63.60
2017-11-30T17:53:50.994Z,60.70
2017-11-30T17:56:17.832Z,61.67
2017-11-30T17:58:44.649Z,57.67
2017-11-30T18:01:11.480Z,57.88
2017-11-30T18:03:38.265Z,52.08
2017-11-30T18:06:05.218Z,53.78
2017-11-30T18:08:32.051Z,53.58
2017-11-30T18:10:58.847Z,56.72
2017-11-30T18:13:25.691Z,54.35
2017-11-30T18:15:52.510Z,53.30
2017-11-30T18:18:19.332Z,52.37
2017-11-30T18:20:46.192Z,52.37
2017-11-30T18:23:12.989Z,52.33
2017-11-30T18:25:40.149Z,50.47
2017-11-30T18:28:06.992Z,51.45
2017-11-30T18:30:33.863Z,54.67
2017-11-30T18:33:00.680Z,57.03
2017-11-30T18:35:27.548Z,90.87
2017-11-30T18:37:54.667Z,86.53
2017-11-30T18:40:21.487Z,64.78
2017-11-30T18:42:48.371Z,63.75
2017-11-30T18:45:15.182Z,58.38
2017-11-30T18:47:41.994Z,77.10
2017-11-30T18:50:08.813Z,64.10
2017-11-30T18:52:35.610Z,57.30
2017-11-30T18:55:02.402Z,58.17
2017-11-30T18:57:29.222Z,50.30
2017-11-30T18:59:56.014Z,55.17
2017-11-30T19:02:22.814Z,49.85
2017-11-30T19:04:49.637Z,48.50
2017-11-30T19:07:16.448Z,46.95
2017-11-30T19:09:43.236Z,51.63
2017-11-30T19:12:10.062Z,47.90
2017-11-30T19:14:36.858Z,43.95
2017-11-30T19:17:03.680Z,45.92
2017-11-30T19:19:30.490Z,50.90
2017-11-30T19:21:57.278Z,46.97
2017-11-30T19:24:24.123Z,46.10
2017-11-30T19:26:51.826Z,47.85
2017-11-30T19:29:18.985Z,51.00
2017-11-30T19:31:45.781Z,42.37
2017-11-30T19:34:12.625Z,59.03
2017-11-30T19:36:39.439Z,48.75
2017-11-30T19:39:06.230Z,53.38
2017-11-30T19:41:33.037Z,59.15
2017-11-30T19:43:59.867Z,54.95
2017-11-30T19:46:26.695Z,60.15
2017-11-30T19:48:53.526Z,55.85
2017-11-30T19:51:20.335Z,57.58
2017-11-30T19:53:47.163Z,49.65
2017-11-30T19:56:14.025Z,47.60
2017-11-30T19:58:40.843Z,48.17
2017-11-30T20:01:07.680Z,49.38
2017-11-30T20:03:34.540Z,49.72
2017-11-30T20:06:01.346Z,48.90
2017-11-30T20:08:28.136Z,51.45
2017-11-30T20:10:54.956Z,49.73
2017-11-30T20:13:21.759Z,48.27
2017-11-30T20:15:48.619Z,53.28
2017-11-30T20:18:15.752Z,57.62
2017-11-30T20:20:42.572Z,54.03
2017-11-30T20:23:09.367Z,50.73
2017-11-30T20:25:36.484Z,51.33
2017-11-30T20:28:03.310Z,52.35
2017-11-30T20:30:30.105Z,53.70
2017-11-30T20:32:56.958Z,50.85
2017-11-30T20:35:23.749Z,69.10
2017-11-30T20:37:50.570Z,54.60
2017-11-30T20:40:17.378Z,54.03
2017-11-30T20:42:44.216Z,56.70
2017-11-30T20:45:11.047Z,61.30
2017-11-30T20:47:37.883Z,59.38
2017-11-30T20:50:04.699Z,63.40
2017-11-30T20:52:31.516Z,54.40
2017-11-30T20:54:58.344Z,52.65
2017-11-30T20:57:25.199Z,57.20
2017-11-30T20:59:52.054Z,53.13
2017-11-30T21:02:18.904Z,57.70
2017-11-30T21:04:45.723Z,57.22
2017-11-30T21:07:12.516Z,57.38
2017-11-30T21:09:39.326Z,55.45
2017-11-30T21:12:06.135Z,51.95
2017-11-30T21:14:33.241Z,53.65
2017-11-30T21:17:00.058Z,62.08
2017-11-30T21:19:26.883Z,51.10
2017-11-30T21:21:53.666Z,55.47
2017-11-30T21:24:20.821Z,56.80
2017-11-30T21:26:47.654Z,54.20
2017-11-30T21:29:14.480Z,53.58
2017-11-30T21:31:41.676Z,59.35
2017-11-30T21:34:08.524Z,57.60
2017-11-30T21:36:35.319Z,63.38
2017-11-30T21:39:02.411Z,62.00
2017-11-30T21:41:29.218Z,66.07
2017-11-30T21:43:56.049Z,65.85
2017-11-30T21:46:23.534Z,75.57
2017-11-30T21:48:50.326Z,81.65
2017-11-30T21:51:17.129Z,62.50
2017-11-30T21:53:43.995Z,90.80
2017-11-30T21:56:10.815Z,83.60
2017-11-30T21:58:37.598Z,80.12
2017-11-30T22:01:04.460Z,57.83
2017-11-30T22:03:31.270Z,62.00
2017-11-30T22:05:58.079Z,61.55
2017-11-30T22:08:24.894Z,59.75
2017-11-30T22:10:51.697Z,53.47
2017-11-30T22:13:18.532Z,53.53
2017-11-30T22:15:45.376Z,58.70
2017-11-30T22:18:12.192Z,53.05
2017-11-30T22:20:39.052Z,46.95
2017-11-30T22:23:05.908Z,49.30
2017-11-30T22:25:32.858Z,48.87
2017-11-30T22:27:59.625Z,52.10
2017-11-30T22:30:26.468Z,49.20
2017-11-30T22:32:53.623Z,55.67
2017-11-30T22:35:20.398Z,51.47
2017-11-30T22:37:47.276Z,53.50
2017-11-30T22:40:14.091Z,50.55
2017-11-30T22:42:40.881Z,60.08
2017-11-30T22:45:07.698Z,54.33
2017-11-30T22:47:34.519Z,61.42
2017-11-30T22:50:01.340Z,55.53
2017-11-30T22:52:28.162Z,53.63
2017-11-30T22:54:54.984Z,54.30
2017-11-30T22:57:21.824Z,50.83
2017-11-30T22:59:48.654Z,55.12
2017-11-30T23:02:15.446Z,49.47
2017-11-30T23:04:42.286Z,47.78
2017-11-30T23:07:09.126Z,47.10
2017-11-30T23:09:35.935Z,47.13
2017-11-30T23:12:02.734Z,45.92
2017-11-30T23:14:29.555Z,56.28
2017-11-30T23:16:56.398Z,50.83
2017-11-30T23:19:23.189Z,51.40
2017-11-30T23:21:50.315Z,50.10
2017-11-30T23:24:17.361Z,46.85
2017-11-30T23:26:44.163Z,55.67
2017-11-30T23:29:10.992Z,58.35
2017-11-30T23:31:37.820Z,52.78
2017-11-30T23:34:04.632Z,57.78
2017-11-30T23:36:31.466Z,52.08
2017-11-30T23:38:58.295Z,52.00
2017-11-30T23:41:25.111Z,52.65
2017-11-30T23:43:52.215Z,59.00
2017-11-30T23:46:19.002Z,58.33
2017-11-30T23:48:46.055Z,51.35
2017-11-30T23:51:12.886Z,52.25
2017-11-30T23:53:39.678Z,50.47
2017-11-30T23:56:06.470Z,52.70
2017-11-30T23:58:33.319Z,53.78
